Time;durP1;ratioP1;P1;durP2;ratioP2;P2;SDS_P1;SDS_P2;PMS_P1;PMS_P2;Temp;Humidity;BMP_temperature;BMP_pressure;BME280_temperature;BME280_humidity;BME280_pressure;Samples;Min_cycle;Max_cycle;Signal;HPM_P1;HPM_P2
2022/12/31 00:01:17;;;;;;;4.20;3.53;;;;;;;;;;4941660;28;20221;-85
2022/12/31 00:03:44;;;;;;;3.40;3.10;;;;;;;;;;4957379;28;20191;-85
2022/12/31 00:06:13;;;;;;;3.93;2.90;;;;;;;;;;4974132;28;20257;-80
2022/12/31 00:08:39;;;;;;;3.30;2.77;;;;;;;;;;4950599;28;20182;-80
2022/12/31 00:11:05;;;;;;;2.83;2.50;;;;;;;;;;4957665;28;20310;-80
2022/12/31 00:13:31;;;;;;;2.47;2.27;;;;;;;;;;4941540;28;20191;-80
2022/12/31 00:16:05;;;;;;;2.97;2.03;;;;;;;;;;4941234;28;20194;-80
2022/12/31 00:18:31;;;;;;;2.70;2.10;;;;;;;;;;4954861;28;20189;-80
2022/12/31 00:20:57;;;;;;;3.60;2.20;;;;;;;;;;4934990;28;20199;-80
2022/12/31 00:23:23;;;;;;;3.83;1.57;;;;;;;;;;4933234;28;20293;-80
2022/12/31 00:25:49;;;;;;;1.63;1.50;;;;;;;;;;4949258;28;20202;-80
2022/12/31 00:28:15;;;;;;;2.20;1.50;;;;;;;;;;4953358;28;20220;-80
2022/12/31 00:30:41;;;;;;;3.63;1.77;;;;;;;;;;4959168;28;20189;-80
2022/12/31 00:33:07;;;;;;;1.90;1.33;;;;;;;;;;4960967;28;20191;-80
2022/12/31 00:35:35;;;;;;;4.10;1.40;;;;;;;;;;4944846;28;20186;-80
2022/12/31 00:38:01;;;;;;;3.10;1.30;;;;;;;;;;4944842;28;20214;-80
2022/12/31 00:40:28;;;;;;;2.87;1.40;;;;;;;;;;4945314;28;20187;-82
2022/12/31 00:42:54;;;;;;;2.50;1.10;;;;;;;;;;4960732;28;20246;-82
2022/12/31 00:45:20;;;;;;;2.20;1.20;;;;;;;;;;4960571;28;20222;-82
2022/12/31 00:47:46;;;;;;;2.23;1.37;;;;;;;;;;4944703;28;20246;-82
2022/12/31 00:50:12;;;;;;;2.63;1.23;;;;;;;;;;4960677;28;20319;-82
2022/12/31 00:52:38;;;;;;;1.57;1.17;;;;;;;;;;4944491;28;20285;-82
2022/12/31 00:55:04;;;;;;;1.77;1.60;;;;;;;;;;4944716;28;20186;-82
2022/12/31 00:57:30;;;;;;;2.40;1.47;;;;;;;;;;4960518;28;20210;-86
2022/12/31 00:59:56;;;;;;;2.63;1.40;;;;;;;;;;4945004;28;20198;-86
2022/12/31 01:02:22;;;;;;;2.53;1.50;;;;;;;;;;4944427;28;20194;-86
2022/12/31 01:04:48;;;;;;;1.67;1.40;;;;;;;;;;4944593;28;20186;-84
2022/12/31 01:07:14;;;;;;;1.60;1.50;;;;;;;;;;4944066;28;20210;-86
2022/12/31 01:09:40;;;;;;;2.93;1.50;;;;;;;;;;4944290;28;20194;-86
2022/12/31 01:12:06;;;;;;;2.77;2.00;;;;;;;;;;4960296;28;20190;-86
2022/12/31 01:14:33;;;;;;;3.87;2.17;;;;;;;;;;4960132;28;20260;-86
2022/12/31 01:16:59;;;;;;;2.53;2.13;;;;;;;;;;4944190;28;20205;-86
2022/12/31 01:19:26;;;;;;;3.10;2.40;;;;;;;;;;4941679;28;20200;-86
2022/12/31 01:21:53;;;;;;;3.57;2.50;;;;;;;;;;4960103;28;20178;-86
2022/12/31 01:24:19;;;;;;;3.13;2.57;;;;;;;;;;4976977;28;20265;-86
2022/12/31 01:26:45;;;;;;;4.67;2.73;;;;;;;;;;4960017;28;20228;-86
2022/12/31 01:29:12;;;;;;;4.37;3.10;;;;;;;;;;4976841;28;20273;-80
2022/12/31 01:31:38;;;;;;;6.10;2.83;;;;;;;;;;4959431;28;20218;-80
2022/12/31 01:34:05;;;;;;;5.33;2.80;;;;;;;;;;4943005;28;20201;-80
2022/12/31 01:36:31;;;;;;;4.27;2.60;;;;;;;;;;4976559;28;20197;-80
2022/12/31 01:38:58;;;;;;;4.23;2.70;;;;;;;;;;4958762;28;20198;-81
2022/12/31 01:41:26;;;;;;;3.90;2.83;;;;;;;;;;4942295;28;20194;-81
2022/12/31 01:43:54;;;;;;;3.30;2.87;;;;;;;;;;4959444;28;20281;-81
2022/12/31 01:46:26;;;;;;;4.03;2.80;;;;;;;;;;4959784;28;20190;-80
2022/12/31 01:48:53;;;;;;;3.43;3.03;;;;;;;;;;4956811;28;20188;-80
2022/12/31 01:51:20;;;;;;;3.83;3.20;;;;;;;;;;4959328;28;20191;-80
2022/12/31 01:53:46;;;;;;;3.93;3.00;;;;;;;;;;4959726;28;20186;-80
2022/12/31 01:56:12;;;;;;;5.23;3.87;;;;;;;;;;4943442;28;20187;-80
2022/12/31 01:58:41;;;;;;;5.63;4.47;;;;;;;;;;4943232;28;20190;-80
2022/12/31 02:01:07;;;;;;;6.93;4.73;;;;;;;;;;4959378;28;20179;-80
2022/12/31 02:03:34;;;;;;;6.50;4.50;;;;;;;;;;4943351;28;20214;-85
2022/12/31 02:06:00;;;;;;;6.43;3.93;;;;;;;;;;4943430;28;20238;-85
2022/12/31 02:08:26;;;;;;;4.50;3.80;;;;;;;;;;4959098;28;20214;-86
2022/12/31 02:10:52;;;;;;;4.73;3.60;;;;;;;;;;4958935;28;20195;-86
2022/12/31 02:13:18;;;;;;;6.67;4.10;;;;;;;;;;4943133;28;20183;-85
2022/12/31 02:15:50;;;;;;;7.10;3.67;;;;;;;;;;4958944;28;20182;-86
2022/12/31 02:18:16;;;;;;;6.03;3.47;;;;;;;;;;4958191;28;20203;-86
2022/12/31 02:20:57;;;;;;;4.03;3.50;;;;;;;;;;4975726;28;20233;-82
2022/12/31 02:23:42;;;;;;;4.40;3.53;;;;;;;;;;4976108;23;20226;-80
2022/12/31 02:26:08;;;;;;;4.33;3.57;;;;;;;;;;4961623;28;20250;-80
2022/12/31 02:28:43;;;;;;;4.80;3.70;;;;;;;;;;4959192;28;20277;-80
2022/12/31 02:31:12;;;;;;;7.00;3.57;;;;;;;;;;4974242;28;20181;-80
2022/12/31 02:33:40;;;;;;;4.93;3.70;;;;;;;;;;4971725;28;20289;-81
2022/12/31 02:36:08;;;;;;;4.03;3.10;;;;;;;;;;4960065;28;20205;-80
2022/12/31 02:38:37;;;;;;;5.43;3.03;;;;;;;;;;4959000;28;20186;-80
2022/12/31 02:41:03;;;;;;;3.67;2.83;;;;;;;;;;4961721;28;20269;-80
2022/12/31 02:43:29;;;;;;;4.63;2.90;;;;;;;;;;4959016;28;20201;-80
2022/12/31 02:46:01;;;;;;;4.90;2.87;;;;;;;;;;4958193;28;20182;-80
2022/12/31 02:48:37;;;;;;;5.63;2.90;;;;;;;;;;4964097;28;20297;-80
2022/12/31 02:51:13;;;;;;;4.57;3.00;;;;;;;;;;4975290;28;20213;-80
2022/12/31 02:53:54;;;;;;;3.50;2.87;;;;;;;;;;4960390;28;20183;-85
2022/12/31 02:56:26;;;;;;;4.60;2.90;;;;;;;;;;4959922;28;20190;-85
2022/12/31 03:04:38;;;;;;;5.80;2.57;;;;;;;;;;4979294;28;20250;-85
2022/12/31 03:07:12;;;;;;;4.73;3.03;;;;;;;;;;4979296;28;20260;-85
2022/12/31 03:09:38;;;;;;;10.93;5.13;;;;;;;;;;4975638;28;20189;-85
2022/12/31 03:14:50;;;;;;;13.23;6.17;;;;;;;;;;4990052;28;20280;-85
2022/12/31 03:17:17;;;;;;;13.90;6.57;;;;;;;;;;4957477;28;20191;-85
2022/12/31 03:22:28;;;;;;;13.93;6.47;;;;;;;;;;4993854;28;20199;-85
2022/12/31 03:27:47;;;;;;;12.83;5.47;;;;;;;;;;4985706;28;20218;-85
2022/12/31 03:30:14;;;;;;;12.90;5.40;;;;;;;;;;4960181;28;20178;-86
2022/12/31 03:32:40;;;;;;;8.97;4.67;;;;;;;;;;4958873;28;20273;-85
2022/12/31 03:35:07;;;;;;;8.70;4.50;;;;;;;;;;4969524;28;20187;-85
2022/12/31 03:37:33;;;;;;;9.50;4.47;;;;;;;;;;4960300;28;20190;-86
2022/12/31 03:39:59;;;;;;;11.53;4.53;;;;;;;;;;4942163;28;20194;-85
2022/12/31 03:42:25;;;;;;;8.70;4.77;;;;;;;;;;4962405;28;20270;-80
2022/12/31 03:44:51;;;;;;;12.33;5.03;;;;;;;;;;4952962;28;20190;-80
2022/12/31 03:47:17;;;;;;;13.83;5.77;;;;;;;;;;4961123;28;20224;-80
2022/12/31 03:49:43;;;;;;;13.70;6.37;;;;;;;;;;4961189;28;20187;-80
2022/12/31 03:52:09;;;;;;;13.30;7.07;;;;;;;;;;4961108;28;20193;-80
2022/12/31 03:54:35;;;;;;;12.97;5.93;;;;;;;;;;4961257;28;20257;-80
2022/12/31 03:57:01;;;;;;;11.20;5.50;;;;;;;;;;4957964;28;20225;-80
2022/12/31 03:59:27;;;;;;;9.17;5.17;;;;;;;;;;4945079;28;20251;-80
2022/12/31 04:01:54;;;;;;;12.10;5.13;;;;;;;;;;4958016;28;20237;-80
2022/12/31 04:04:20;;;;;;;8.10;5.13;;;;;;;;;;4958298;28;20269;-80
2022/12/31 04:06:46;;;;;;;7.67;4.90;;;;;;;;;;4961596;28;20240;-80
2022/12/31 04:09:12;;;;;;;7.30;5.07;;;;;;;;;;4962187;28;20214;-80
2022/12/31 04:11:38;;;;;;;11.93;5.70;;;;;;;;;;4981022;28;20170;-80
2022/12/31 04:14:04;;;;;;;10.27;6.13;;;;;;;;;;4964727;28;20205;-80
2022/12/31 04:16:31;;;;;;;9.53;6.13;;;;;;;;;;4981026;28;20232;-82
2022/12/31 04:18:57;;;;;;;10.70;6.60;;;;;;;;;;4981573;28;20181;-81
2022/12/31 04:21:23;;;;;;;11.83;7.10;;;;;;;;;;4980878;28;20181;-80
2022/12/31 04:23:49;;;;;;;12.23;6.97;;;;;;;;;;4980650;28;20221;-80
2022/12/31 04:26:15;;;;;;;11.50;7.50;;;;;;;;;;4961300;28;20190;-80
2022/12/31 04:28:41;;;;;;;11.33;7.73;;;;;;;;;;4961515;28;20245;-80
2022/12/31 04:31:07;;;;;;;9.20;7.33;;;;;;;;;;4961440;28;20204;-80
2022/12/31 04:33:33;;;;;;;10.20;7.33;;;;;;;;;;4964857;28;20213;-81
2022/12/31 04:36:03;;;;;;;10.83;7.60;;;;;;;;;;4964891;28;20185;-81
2022/12/31 04:38:29;;;;;;;10.07;7.80;;;;;;;;;;4977019;28;20311;-80
2022/12/31 04:43:40;;;;;;;9.73;7.60;;;;;;;;;;4979100;28;20318;-80
2022/12/31 04:46:06;;;;;;;9.20;7.20;;;;;;;;;;4965266;28;20182;-80
2022/12/31 04:48:33;;;;;;;10.63;6.93;;;;;;;;;;4962331;28;20265;-80
2022/12/31 04:50:59;;;;;;;12.57;7.40;;;;;;;;;;4974331;28;20182;-80
2022/12/31 04:53:25;;;;;;;9.53;7.30;;;;;;;;;;4967400;28;20210;-80
2022/12/31 04:55:51;;;;;;;10.30;7.33;;;;;;;;;;4961366;28;20190;-80
2022/12/31 04:58:17;;;;;;;8.37;6.73;;;;;;;;;;4961310;28;20183;-80
2022/12/31 05:00:45;;;;;;;8.13;6.50;;;;;;;;;;4960552;28;20197;-79
2022/12/31 05:03:11;;;;;;;8.37;6.13;;;;;;;;;;4975391;28;20213;-80
2022/12/31 05:05:43;;;;;;;9.23;6.20;;;;;;;;;;4963832;28;20285;-82
2022/12/31 05:08:10;;;;;;;8.57;6.43;;;;;;;;;;4968942;28;20214;-82
2022/12/31 05:10:37;;;;;;;5.97;5.10;;;;;;;;;;4953487;28;20187;-82
2022/12/31 05:13:03;;;;;;;6.43;5.10;;;;;;;;;;4971157;28;20183;-82
2022/12/31 05:15:29;;;;;;;6.80;5.33;;;;;;;;;;4979120;28;20210;-82
2022/12/31 05:17:55;;;;;;;5.37;4.63;;;;;;;;;;4962446;28;20209;-85
2022/12/31 05:20:21;;;;;;;4.80;4.20;;;;;;;;;;4979775;28;20279;-85
2022/12/31 05:22:47;;;;;;;6.10;4.57;;;;;;;;;;4963770;28;20257;-85
2022/12/31 05:25:13;;;;;;;4.53;4.07;;;;;;;;;;4963984;28;20280;-84
2022/12/31 05:27:39;;;;;;;4.33;3.90;;;;;;;;;;4964181;28;20217;-84
2022/12/31 05:30:05;;;;;;;3.50;3.20;;;;;;;;;;4971607;28;20182;-85
2022/12/31 05:32:32;;;;;;;3.50;3.17;;;;;;;;;;4944426;28;20194;-84
2022/12/31 05:34:58;;;;;;;7.30;2.97;;;;;;;;;;4968274;28;20181;-86
2022/12/31 05:37:25;;;;;;;3.67;2.67;;;;;;;;;;4963123;28;20294;-85
2022/12/31 05:39:51;;;;;;;2.20;1.87;;;;;;;;;;4963676;28;20202;-85
2022/12/31 05:42:17;;;;;;;1.97;1.87;;;;;;;;;;4971614;28;20178;-85
2022/12/31 05:44:43;;;;;;;1.90;1.60;;;;;;;;;;4963317;28;20289;-85
2022/12/31 05:47:09;;;;;;;1.47;1.30;;;;;;;;;;4965494;28;20276;-81
2022/12/31 05:49:35;;;;;;;1.70;1.60;;;;;;;;;;4953932;28;20204;-82
2022/12/31 05:52:01;;;;;;;2.60;1.50;;;;;;;;;;4950152;28;20178;-81
2022/12/31 05:54:27;;;;;;;2.10;1.50;;;;;;;;;;4960321;28;20187;-82
2022/12/31 05:56:55;;;;;;;2.37;1.50;;;;;;;;;;4959873;28;20185;-80
2022/12/31 05:59:21;;;;;;;2.37;1.50;;;;;;;;;;4960260;28;20190;-80
2022/12/31 06:01:47;;;;;;;2.53;1.40;;;;;;;;;;4959739;28;20190;-80
2022/12/31 06:04:13;;;;;;;2.10;1.60;;;;;;;;;;4959960;28;20187;-81
2022/12/31 06:06:39;;;;;;;2.50;1.60;;;;;;;;;;4959448;28;20305;-80
2022/12/31 06:09:05;;;;;;;3.43;1.90;;;;;;;;;;4978859;28;20193;-80
2022/12/31 06:11:31;;;;;;;3.00;1.70;;;;;;;;;;4978840;28;20188;-80
2022/12/31 06:13:57;;;;;;;1.80;1.40;;;;;;;;;;4971346;28;20269;-85
2022/12/31 06:16:24;;;;;;;2.07;1.50;;;;;;;;;;4959653;28;20254;-85
2022/12/31 06:18:50;;;;;;;2.20;1.57;;;;;;;;;;4959762;28;20179;-85
2022/12/31 06:21:17;;;;;;;1.80;1.70;;;;;;;;;;4959453;28;20201;-85
2022/12/31 06:23:43;;;;;;;1.50;1.20;;;;;;;;;;4953696;28;20235;-85
2022/12/31 06:26:09;;;;;;;1.17;1.13;;;;;;;;;;4959591;28;20208;-85
2022/12/31 06:28:35;;;;;;;2.73;1.60;;;;;;;;;;4959097;28;20207;-85
2022/12/31 06:31:02;;;;;;;1.50;1.40;;;;;;;;;;4967095;28;20292;-80
2022/12/31 06:33:29;;;;;;;1.43;1.33;;;;;;;;;;4995781;28;20177;-80
2022/12/31 06:35:56;;;;;;;2.20;1.67;;;;;;;;;;4978553;28;20177;-80
2022/12/31 06:38:22;;;;;;;1.50;1.40;;;;;;;;;;4973067;28;20183;-80
2022/12/31 06:40:48;;;;;;;1.50;1.40;;;;;;;;;;4968015;28;20228;-80
2022/12/31 06:43:14;;;;;;;3.50;1.70;;;;;;;;;;4955937;28;20193;-80
2022/12/31 06:45:42;;;;;;;1.60;1.50;;;;;;;;;;4950726;28;20182;-85
2022/12/31 06:48:08;;;;;;;1.67;1.30;;;;;;;;;;4974862;28;20215;-84
2022/12/31 06:50:35;;;;;;;1.90;1.30;;;;;;;;;;4958941;28;20282;-84
2022/12/31 06:53:04;;;;;;;2.50;1.60;;;;;;;;;;4967394;28;20175;-85
2022/12/31 06:55:30;;;;;;;1.50;1.40;;;;;;;;;;4950269;28;20178;-85
2022/12/31 06:57:56;;;;;;;3.03;2.10;;;;;;;;;;4957407;28;20186;-84
2022/12/31 07:00:23;;;;;;;5.40;3.87;;;;;;;;;;4958541;28;20191;-84
2022/12/31 07:03:18;;;;;;;5.63;3.47;;;;;;;;;;4958392;28;20183;-79
2022/12/31 07:05:50;;;;;;;4.80;3.67;;;;;;;;;;4963595;28;20202;-79
2022/12/31 07:08:24;;;;;;;7.60;3.60;;;;;;;;;;4960462;28;20211;-79
2022/12/31 07:11:04;;;;;;;4.13;2.50;;;;;;;;;;4971060;28;20181;-79
2022/12/31 07:13:30;;;;;;;2.47;1.70;;;;;;;;;;4981851;28;20182;-80
2022/12/31 07:16:05;;;;;;;2.80;1.80;;;;;;;;;;4975230;28;20181;-79
2022/12/31 07:18:35;;;;;;;3.13;1.90;;;;;;;;;;4977780;28;20208;-79
2022/12/31 07:21:01;;;;;;;3.77;2.23;;;;;;;;;;4964397;28;20221;-84
2022/12/31 07:23:27;;;;;;;2.47;2.27;;;;;;;;;;4963477;28;20230;-84
2022/12/31 07:26:06;;;;;;;3.80;2.83;;;;;;;;;;4948681;28;20183;-85
2022/12/31 07:28:35;;;;;;;6.20;4.30;;;;;;;;;;4960142;28;20248;-85
2022/12/31 07:31:06;;;;;;;9.60;5.13;;;;;;;;;;4966825;28;20174;-85
2022/12/31 07:33:46;;;;;;;8.67;4.97;;;;;;;;;;4966027;28;20178;-85
2022/12/31 07:36:12;;;;;;;10.53;4.93;;;;;;;;;;4975436;28;20208;-80
2022/12/31 07:38:38;;;;;;;12.20;5.47;;;;;;;;;;4972153;28;20189;-79
2022/12/31 07:41:07;;;;;;;9.87;5.20;;;;;;;;;;4966234;28;20276;-84
2022/12/31 07:43:50;;;;;;;12.27;5.03;;;;;;;;;;4964883;28;20178;-85
2022/12/31 07:46:38;;;;;;;13.27;6.17;;;;;;;;;;4977487;28;20190;-83
2022/12/31 07:49:05;;;;;;;15.63;6.60;;;;;;;;;;4977732;28;20178;-83
2022/12/31 07:51:31;;;;;;;14.70;6.77;;;;;;;;;;4971310;28;20275;-84
2022/12/31 07:53:57;;;;;;;14.37;7.27;;;;;;;;;;4957742;28;20233;-83
2022/12/31 07:56:23;;;;;;;12.67;6.37;;;;;;;;;;4958327;28;20269;-85
2022/12/31 07:58:50;;;;;;;8.07;4.23;;;;;;;;;;4959314;28;20183;-84
2022/12/31 08:01:19;;;;;;;8.57;3.93;;;;;;;;;;4963816;28;20186;-80
2022/12/31 08:03:57;;;;;;;5.90;4.20;;;;;;;;;;4971503;28;20181;-80
2022/12/31 08:06:41;;;;;;;8.17;4.33;;;;;;;;;;4976546;28;20169;-79
2022/12/31 08:09:20;;;;;;;4.03;3.07;;;;;;;;;;4963343;28;20239;-79
2022/12/31 08:11:50;;;;;;;5.87;3.50;;;;;;;;;;4985839;28;20249;-79
2022/12/31 08:14:18;;;;;;;2.73;2.30;;;;;;;;;;4994475;28;20174;-79
2022/12/31 08:16:44;;;;;;;9.87;3.40;;;;;;;;;;4994535;28;20170;-79
2022/12/31 08:19:22;;;;;;;9.73;3.70;;;;;;;;;;4987635;28;20201;-80
2022/12/31 08:21:52;;;;;;;7.40;3.30;;;;;;;;;;4970922;28;20171;-79
2022/12/31 08:24:28;;;;;;;2.10;1.73;;;;;;;;;;4970389;23;20238;-80
2022/12/31 08:27:08;;;;;;;3.30;1.60;;;;;;;;;;4966133;28;20292;-80
2022/12/31 08:30:03;;;;;;;1.63;1.20;;;;;;;;;;4950598;28;20223;-79
2022/12/31 08:32:32;;;;;;;5.60;1.20;;;;;;;;;;4926181;29;20191;-81
2022/12/31 08:35:15;;;;;;;6.00;1.30;;;;;;;;;;4944547;28;20174;-81
2022/12/31 08:37:43;;;;;;;3.97;1.73;;;;;;;;;;4975986;28;20186;-81
2022/12/31 08:40:19;;;;;;;1.77;1.40;;;;;;;;;;4956615;28;20192;-81
2022/12/31 08:42:45;;;;;;;3.20;1.23;;;;;;;;;;4938773;29;20175;-81
2022/12/31 08:45:16;;;;;;;2.00;1.20;;;;;;;;;;4988476;28;20211;-81
2022/12/31 08:48:12;;;;;;;3.73;1.30;;;;;;;;;;4980986;28;20218;-81
2022/12/31 08:50:38;;;;;;;1.97;1.30;;;;;;;;;;4966206;28;20190;-81
2022/12/31 08:53:04;;;;;;;2.97;1.10;;;;;;;;;;4952000;28;20245;-81
2022/12/31 08:55:30;;;;;;;3.00;1.37;;;;;;;;;;4948226;29;20239;-81
2022/12/31 08:58:08;;;;;;;2.07;1.00;;;;;;;;;;4963191;28;20240;-81
2022/12/31 09:00:35;;;;;;;2.00;1.10;;;;;;;;;;4981120;28;20197;-81
2022/12/31 09:03:11;;;;;;;2.67;1.13;;;;;;;;;;4961346;28;20202;-81
2022/12/31 09:05:44;;;;;;;4.83;2.30;;;;;;;;;;4945968;29;20214;-81
2022/12/31 09:08:16;;;;;;;2.47;1.13;;;;;;;;;;4961494;28;20214;-81
2022/12/31 09:10:48;;;;;;;3.57;1.43;;;;;;;;;;4958247;29;20183;-82
2022/12/31 09:13:20;;;;;;;2.93;1.63;;;;;;;;;;4963998;28;20185;-81
2022/12/31 09:16:04;;;;;;;2.17;1.90;;;;;;;;;;4960441;28;20273;-82
2022/12/31 09:18:30;;;;;;;3.13;1.50;;;;;;;;;;4951033;29;20187;-82
2022/12/31 09:20:56;;;;;;;1.40;1.30;;;;;;;;;;4941427;29;20207;-82
2022/12/31 09:23:22;;;;;;;3.67;2.10;;;;;;;;;;4968638;28;20235;-81
2022/12/31 09:25:58;;;;;;;12.17;9.57;;;;;;;;;;4977567;28;20179;-82
2022/12/31 09:28:24;;;;;;;3.83;2.77;;;;;;;;;;4953291;28;20258;-82
2022/12/31 09:31:13;;;;;;;2.70;1.70;;;;;;;;;;4941317;29;20175;-82
2022/12/31 09:33:50;;;;;;;4.13;1.77;;;;;;;;;;4941719;28;20171;-79
2022/12/31 09:36:22;;;;;;;9.43;7.20;;;;;;;;;;4956965;29;20246;-79
2022/12/31 09:38:52;;;;;;;5.73;2.20;;;;;;;;;;4959894;28;20178;-79
2022/12/31 09:41:41;;;;;;;2.77;1.80;;;;;;;;;;4977151;28;20232;-79
2022/12/31 09:44:30;;;;;;;4.73;1.90;;;;;;;;;;4927968;28;20205;-79
2022/12/31 09:47:15;;;;;;;3.43;2.00;;;;;;;;;;4940776;28;20211;-79
2022/12/31 09:49:56;;;;;;;9.43;3.30;;;;;;;;;;4972865;28;20179;-85
2022/12/31 09:52:28;;;;;;;5.23;2.80;;;;;;;;;;4940879;29;20230;-85
2022/12/31 09:55:13;;;;;;;6.53;3.60;;;;;;;;;;4959861;28;20199;-85
2022/12/31 09:57:59;;;;;;;5.27;2.40;;;;;;;;;;4960266;28;20186;-85
2022/12/31 10:00:40;;;;;;;5.17;2.90;;;;;;;;;;4923369;29;20253;-86
2022/12/31 10:03:16;;;;;;;5.30;2.50;;;;;;;;;;4957125;28;20325;-85
2022/12/31 10:06:00;;;;;;;50.37;35.77;;;;;;;;;;4947623;29;20216;-79
2022/12/31 10:08:32;;;;;;;4.03;2.37;;;;;;;;;;4960639;28;20261;-79
2022/12/31 10:11:01;;;;;;;3.50;1.70;;;;;;;;;;4959581;28;20259;-79
2022/12/31 10:13:46;;;;;;;3.20;1.50;;;;;;;;;;4950765;28;20183;-79
2022/12/31 10:16:12;;;;;;;4.90;1.80;;;;;;;;;;4958378;28;20410;-79
2022/12/31 10:18:41;;;;;;;3.97;1.70;;;;;;;;;;4943506;28;20180;-79
2022/12/31 10:21:10;;;;;;;5.33;1.80;;;;;;;;;;4955722;29;20237;-79
2022/12/31 10:23:55;;;;;;;4.47;1.63;;;;;;;;;;4955878;29;20239;-79
2022/12/31 10:26:34;;;;;;;3.73;1.30;;;;;;;;;;4955967;29;20234;-79
2022/12/31 10:29:09;;;;;;;2.87;1.50;;;;;;;;;;4954680;29;20198;-82
2022/12/31 10:31:56;;;;;;;6.13;2.10;;;;;;;;;;4963372;28;20222;-83
2022/12/31 10:34:25;;;;;;;2.23;1.30;;;;;;;;;;4940450;28;20258;-82
2022/12/31 10:36:53;;;;;;;4.33;2.30;;;;;;;;;;4950253;29;20202;-83
2022/12/31 10:39:38;;;;;;;5.33;1.80;;;;;;;;;;4940637;29;20190;-85
2022/12/31 10:42:23;;;;;;;3.70;1.77;;;;;;;;;;4957020;29;20237;-86
2022/12/31 10:44:55;;;;;;;4.60;1.80;;;;;;;;;;4955882;29;20238;-86
2022/12/31 10:47:21;;;;;;;2.37;1.70;;;;;;;;;;4950544;29;20305;-85
2022/12/31 10:49:59;;;;;;;4.10;1.73;;;;;;;;;;4971243;28;20291;-86
2022/12/31 10:52:44;;;;;;;3.95;1.83;;;;;;;;;;4964128;28;20423;-86
2022/12/31 10:55:24;;;;;;;4.33;2.30;;;;;;;;;;4958689;28;20177;-85
2022/12/31 10:57:56;;;;;;;5.00;2.23;;;;;;;;;;4958421;28;20186;-83
2022/12/31 11:00:22;;;;;;;4.47;2.30;;;;;;;;;;4949434;28;20205;-83
2022/12/31 11:02:52;;;;;;;5.80;2.23;;;;;;;;;;4923903;29;20195;-83
2022/12/31 11:05:17;;;;;;;4.73;2.00;;;;;;;;;;4939568;29;20215;-83
2022/12/31 11:07:47;;;;;;;5.97;2.00;;;;;;;;;;4942120;28;20210;-83
2022/12/31 11:10:22;;;;;;;3.50;1.60;;;;;;;;;;4949967;29;20184;-84
2022/12/31 11:13:17;;;;;;;6.50;2.10;;;;;;;;;;4957692;28;20187;-84
2022/12/31 11:15:43;;;;;;;2.73;1.50;;;;;;;;;;4945541;28;20218;-84
2022/12/31 11:18:20;;;;;;;5.00;1.90;;;;;;;;;;4972739;28;20249;-83
2022/12/31 11:21:08;;;;;;;4.43;2.10;;;;;;;;;;4958654;28;20183;-86
2022/12/31 11:23:49;;;;;;;4.63;2.00;;;;;;;;;;4958044;28;20234;-86
2022/12/31 11:26:15;;;;;;;3.73;1.80;;;;;;;;;;4945169;29;20188;-86
2022/12/31 11:28:47;;;;;;;6.13;2.20;;;;;;;;;;4955424;28;20213;-86
2022/12/31 11:31:20;;;;;;;3.77;2.50;;;;;;;;;;4953381;28;20183;-80
2022/12/31 11:33:46;;;;;;;6.30;2.67;;;;;;;;;;4969575;28;20172;-80
2022/12/31 11:36:15;;;;;;;4.20;2.10;;;;;;;;;;4939695;29;20277;-80
2022/12/31 11:38:44;;;;;;;5.33;2.40;;;;;;;;;;4947146;29;20187;-80
2022/12/31 11:41:43;;;;;;;6.83;3.03;;;;;;;;;;4938774;28;20183;-80
2022/12/31 11:44:28;;;;;;;14.97;11.53;;;;;;;;;;4924193;29;20269;-80
2022/12/31 11:46:57;;;;;;;10.50;7.43;;;;;;;;;;4954620;29;20211;-80
2022/12/31 11:49:33;;;;;;;7.37;2.20;;;;;;;;;;4947270;28;20191;-79
2022/12/31 11:52:02;;;;;;;6.03;2.00;;;;;;;;;;4957880;28;20280;-80
2022/12/31 11:54:40;;;;;;;7.27;2.20;;;;;;;;;;4975397;28;20178;-80
2022/12/31 11:57:09;;;;;;;6.13;2.37;;;;;;;;;;4948798;28;20186;-80
2022/12/31 11:59:35;;;;;;;7.80;2.67;;;;;;;;;;4958359;28;20182;-80
2022/12/31 12:02:04;;;;;;;5.90;2.87;;;;;;;;;;4937915;29;20202;-80
2022/12/31 12:04:30;;;;;;;6.73;2.40;;;;;;;;;;4938941;29;20203;-86
2022/12/31 12:06:56;;;;;;;11.77;2.67;;;;;;;;;;4938817;29;20294;-86
2022/12/31 12:09:27;;;;;;;6.27;1.97;;;;;;;;;;4938737;28;20195;-80
2022/12/31 12:12:00;;;;;;;5.87;2.00;;;;;;;;;;4955979;28;20179;-80
2022/12/31 12:14:36;;;;;;;7.00;2.30;;;;;;;;;;4954259;29;20191;-80
2022/12/31 12:17:06;;;;;;;5.83;2.00;;;;;;;;;;4954582;29;20184;-80
2022/12/31 12:19:33;;;;;;;6.50;2.00;;;;;;;;;;4939269;29;20183;-86
2022/12/31 12:22:08;;;;;;;3.50;1.90;;;;;;;;;;4942247;29;20183;-86
2022/12/31 12:24:34;;;;;;;34.27;26.57;;;;;;;;;;4954742;29;20230;-86
2022/12/31 12:27:00;;;;;;;6.07;2.00;;;;;;;;;;4938019;29;20215;-86
2022/12/31 12:29:28;;;;;;;6.53;2.70;;;;;;;;;;4942737;29;20230;-86
2022/12/31 12:31:56;;;;;;;6.13;2.97;;;;;;;;;;4942040;28;20210;-86
2022/12/31 12:34:32;;;;;;;5.33;2.30;;;;;;;;;;4961521;28;20186;-86
2022/12/31 12:36:59;;;;;;;4.67;1.70;;;;;;;;;;4942401;29;20191;-84
2022/12/31 12:39:26;;;;;;;5.67;1.90;;;;;;;;;;4942009;29;20250;-84
2022/12/31 12:42:03;;;;;;;8.10;2.33;;;;;;;;;;4947634;29;20191;-83
2022/12/31 12:44:30;;;;;;;6.67;2.43;;;;;;;;;;4948874;28;20221;-83
2022/12/31 12:46:57;;;;;;;4.17;1.87;;;;;;;;;;4967058;28;20203;-83
2022/12/31 12:49:23;;;;;;;7.13;2.40;;;;;;;;;;4927805;28;20205;-83
2022/12/31 12:52:07;;;;;;;7.77;3.10;;;;;;;;;;4961029;28;20189;-84
2022/12/31 12:54:34;;;;;;;6.20;2.10;;;;;;;;;;4989679;28;20178;-86
2022/12/31 12:57:07;;;;;;;5.40;2.40;;;;;;;;;;4969922;28;20265;-86
2022/12/31 12:59:49;;;;;;;5.07;2.20;;;;;;;;;;4950300;28;20189;-86
2022/12/31 13:02:30;;;;;;;5.07;2.10;;;;;;;;;;4957647;28;20195;-86
2022/12/31 13:04:56;;;;;;;4.47;2.00;;;;;;;;;;4941891;29;20183;-86
2022/12/31 13:07:42;;;;;;;5.30;2.33;;;;;;;;;;4948708;28;20244;-87
2022/12/31 13:10:29;;;;;;;5.27;2.13;;;;;;;;;;4959502;28;20314;-85
2022/12/31 13:13:11;;;;;;;6.53;2.50;;;;;;;;;;4957917;28;20194;-86
2022/12/31 13:15:44;;;;;;;6.45;2.80;;;;;;;;;;4960110;28;20501;-86
2022/12/31 13:18:16;;;;;;;6.17;2.50;;;;;;;;;;4942791;29;20295;-86
2022/12/31 13:20:42;;;;;;;6.33;2.73;;;;;;;;;;4957906;28;20183;-86
2022/12/31 13:23:11;;;;;;;6.70;2.63;;;;;;;;;;4958538;29;20282;-86
2022/12/31 13:25:37;;;;;;;6.22;3.20;;;;;;;;;;4994617;28;20444;-83
2022/12/31 13:28:05;;;;;;;6.23;2.50;;;;;;;;;;4959577;28;20203;-83
2022/12/31 13:30:46;;;;;;;4.30;2.57;;;;;;;;;;4959161;28;20178;-83
2022/12/31 13:33:12;;;;;;;7.07;2.67;;;;;;;;;;4960387;28;20210;-83
2022/12/31 13:35:48;;;;;;;9.90;2.33;;;;;;;;;;4951926;28;20186;-83
2022/12/31 13:38:20;;;;;;;5.63;1.90;;;;;;;;;;4959494;28;20189;-83
2022/12/31 13:41:04;;;;;;;6.37;2.50;;;;;;;;;;4966559;28;20182;-84
2022/12/31 13:43:36;;;;;;;6.03;2.30;;;;;;;;;;4988740;28;20190;-80
2022/12/31 13:46:07;;;;;;;9.23;2.77;;;;;;;;;;4952342;28;20215;-79
2022/12/31 13:48:39;;;;;;;6.47;3.03;;;;;;;;;;4958019;29;20249;-80
2022/12/31 13:51:05;;;;;;;8.13;2.90;;;;;;;;;;4940696;28;20182;-79
2022/12/31 13:53:34;;;;;;;6.30;2.83;;;;;;;;;;4965002;28;20178;-79
2022/12/31 13:56:02;;;;;;;6.03;3.00;;;;;;;;;;4984742;28;20186;-79
2022/12/31 13:58:47;;;;;;;4.60;2.40;;;;;;;;;;4959871;28;20187;-79
2022/12/31 14:01:22;;;;;;;10.57;7.27;;;;;;;;;;4959854;28;20187;-79
2022/12/31 14:03:56;;;;;;;8.57;4.00;;;;;;;;;;4966023;28;20183;-79
2022/12/31 14:06:29;;;;;;;7.40;3.17;;;;;;;;;;4963407;28;20182;-79
2022/12/31 14:08:55;;;;;;;11.83;7.93;;;;;;;;;;4973037;28;20272;-79
2022/12/31 14:11:24;;;;;;;7.90;3.70;;;;;;;;;;4974588;28;20270;-79
2022/12/31 14:14:13;;;;;;;7.00;3.60;;;;;;;;;;4946012;29;20254;-79
2022/12/31 14:16:46;;;;;;;10.73;5.60;;;;;;;;;;4977550;28;20228;-86
2022/12/31 14:19:12;;;;;;;10.23;3.40;;;;;;;;;;4979491;28;20178;-85
2022/12/31 14:21:51;;;;;;;8.87;3.43;;;;;;;;;;4973161;28;20209;-86
2022/12/31 14:24:40;;;;;;;6.57;3.03;;;;;;;;;;4981494;23;20240;-83
2022/12/31 14:27:10;;;;;;;7.47;3.50;;;;;;;;;;4968741;28;20300;-83
2022/12/31 14:29:42;;;;;;;9.87;2.93;;;;;;;;;;4985885;28;20198;-83
2022/12/31 14:32:27;;;;;;;6.77;2.80;;;;;;;;;;4960649;28;20174;-83
2022/12/31 14:35:06;;;;;;;8.10;3.17;;;;;;;;;;4977438;28;20213;-83
2022/12/31 14:37:38;;;;;;;6.03;2.20;;;;;;;;;;4959098;28;20193;-87
2022/12/31 14:40:22;;;;;;;8.53;2.70;;;;;;;;;;4976214;28;20189;-88
2022/12/31 14:43:07;;;;;;;6.63;2.40;;;;;;;;;;4958949;28;20197;-88
2022/12/31 14:45:45;;;;;;;11.57;2.70;;;;;;;;;;4972357;28;20187;-87
2022/12/31 14:48:31;;;;;;;8.93;2.40;;;;;;;;;;4967067;28;20217;-88
2022/12/31 14:51:00;;;;;;;13.43;2.80;;;;;;;;;;4978381;28;20208;-80
2022/12/31 14:53:28;;;;;;;6.83;2.67;;;;;;;;;;4963530;28;20190;-81
2022/12/31 14:55:58;;;;;;;8.67;2.87;;;;;;;;;;4958886;28;20170;-81
2022/12/31 14:58:32;;;;;;;7.00;2.70;;;;;;;;;;4963842;28;20214;-81
2022/12/31 15:01:07;;;;;;;9.90;2.70;;;;;;;;;;4958357;28;20179;-81
2022/12/31 15:03:36;;;;;;;7.23;2.53;;;;;;;;;;4968030;28;20181;-81
2022/12/31 15:06:21;;;;;;;8.30;3.20;;;;;;;;;;4976902;28;20380;-81
2022/12/31 15:08:56;;;;;;;7.83;3.00;;;;;;;;;;4969369;28;20217;-83
2022/12/31 15:11:22;;;;;;;11.27;3.07;;;;;;;;;;4977875;28;20188;-81
2022/12/31 15:13:48;;;;;;;11.10;2.90;;;;;;;;;;4977928;28;20197;-81
2022/12/31 15:16:33;;;;;;;9.43;3.57;;;;;;;;;;4978185;28;20314;-81
2022/12/31 15:19:02;;;;;;;9.03;3.23;;;;;;;;;;4978190;28;20205;-82